Time;durP1;ratioP1;P1;durP2;ratioP2;P2;SDS_P1;SDS_P2;PMS_P1;PMS_P2;Temp;Humidity;BMP_temperature;BMP_pressure;BME280_temperature;BME280_humidity;BME280_pressure;Samples;Min_cycle;Max_cycle;Signal;HPM_P1;HPM_P2
2024/01/23 00:01:58;;;;;;;43.17;6.25;;;8.70;91.60;;;;;;5053185;28;20017;-73
2024/01/23 00:04:23;;;;;;;41.97;5.68;;;8.90;91.80;;;;;;5050516;28;20021;-74
2024/01/23 00:06:49;;;;;;;46.95;5.50;;;9.00;90.90;;;;;;5051050;28;20025;-74
2024/01/23 00:09:14;;;;;;;42.00;6.03;;;9.00;90.70;;;;;;5051901;28;20115;-73
2024/01/23 00:11:40;;;;;;;44.33;5.53;;;9.00;91.10;;;;;;5051231;28;20024;-73
2024/01/23 00:14:06;;;;;;;39.58;5.82;;;9.00;90.40;;;;;;5051600;28;20110;-73
2024/01/23 00:16:31;;;;;;;41.97;5.72;;;9.00;91.10;;;;;;5051071;28;20029;-73
2024/01/23 00:18:57;;;;;;;43.42;6.03;;;9.00;92.10;;;;;;5051537;28;20035;-72
2024/01/23 00:21:22;;;;;;;37.53;5.25;;;9.00;92.30;;;;;;5051590;28;20104;-72
2024/01/23 00:23:48;;;;;;;38.53;5.75;;;9.00;93.40;;;;;;5051001;28;20091;-73
2024/01/23 00:26:13;;;;;;;42.55;6.03;;;8.90;93.20;;;;;;5051003;28;20051;-72
2024/01/23 00:28:39;;;;;;;45.45;6.30;;;8.90;92.60;;;;;;5051758;28;20079;-72
2024/01/23 00:31:06;;;;;;;36.55;5.82;;;9.00;92.10;;;;;;5052032;28;20457;-73
2024/01/23 00:33:31;;;;;;;42.38;5.63;;;8.90;93.30;;;;;;5051509;28;20025;-73
2024/01/23 00:35:57;;;;;;;35.08;6.10;;;8.90;92.90;;;;;;5050729;28;20573;-73
2024/01/23 00:38:22;;;;;;;40.10;5.82;;;8.90;93.10;;;;;;5050695;28;20025;-74
2024/01/23 00:40:48;;;;;;;46.85;5.70;;;8.90;92.80;;;;;;5051715;28;20025;-73
2024/01/23 00:43:14;;;;;;;40.75;4.85;;;8.90;93.30;;;;;;5051402;28;20427;-75
2024/01/23 00:45:39;;;;;;;43.00;7.47;;;8.80;93.50;;;;;;5050894;28;20016;-72
2024/01/23 00:48:05;;;;;;;49.38;6.05;;;8.80;94.30;;;;;;5051074;28;20488;-72
2024/01/23 00:50:31;;;;;;;49.75;6.03;;;8.80;93.70;;;;;;5050669;28;20436;-73
2024/01/23 00:52:57;;;;;;;40.38;4.75;;;8.70;94.30;;;;;;5051365;28;20031;-73
2024/01/23 00:55:22;;;;;;;26.02;4.18;;;8.70;97.70;;;;;;5050311;28;20483;-73
2024/01/23 00:57:48;;;;;;;22.65;3.22;;;8.60;95.50;;;;;;5050896;28;20032;-74
2024/01/23 01:00:14;;;;;;;23.25;3.20;;;;;;;;;;5051211;28;20104;-73
2024/01/23 01:02:39;;;;;;;20.90;2.90;;;8.10;99.20;;;;;;5045797;28;20734;-74
2024/01/23 01:05:05;;;;;;;30.25;3.63;;;7.90;99.90;;;;;;5051050;28;20106;-73
2024/01/23 01:07:31;;;;;;;33.78;4.15;;;7.80;99.90;;;;;;5053488;28;20494;-72
2024/01/23 01:09:56;;;;;;;26.60;4.05;;;7.80;99.90;;;;;;5057060;28;20057;-71
2024/01/23 01:12:22;;;;;;;28.45;4.80;;;7.70;99.90;;;;;;5059628;28;20042;-73
2024/01/23 01:14:47;;;;;;;27.38;3.85;;;7.60;99.90;;;;;;5062068;28;20029;-73
2024/01/23 01:17:13;;;;;;;30.05;3.85;;;7.50;99.90;;;;;;5061496;28;20027;-71
2024/01/23 01:19:39;;;;;;;29.73;4.07;;;7.50;99.90;;;;;;5061833;28;20374;-72
2024/01/23 01:22:05;;;;;;;26.65;3.92;;;7.40;99.90;;;;;;5062230;28;20029;-72
2024/01/23 01:24:31;;;;;;;32.40;4.35;;;7.60;99.90;;;;;;5054098;28;20051;-72
2024/01/23 01:26:57;;;;;;;26.73;4.63;;;7.30;99.90;;;;;;5058144;28;20037;-73
2024/01/23 01:29:23;;;;;;;24.48;3.95;;;7.40;99.90;;;;;;5060675;28;20039;-73
2024/01/23 01:31:49;;;;;;;22.85;3.67;;;7.40;99.90;;;;;;5061316;28;20055;-72
2024/01/23 01:34:14;;;;;;;32.50;4.28;;;7.20;99.90;;;;;;5055226;28;20037;-72
2024/01/23 01:36:40;;;;;;;45.10;4.38;;;7.20;99.90;;;;;;5053918;28;20437;-72
2024/01/23 01:39:06;;;;;;;27.83;4.60;;;7.20;99.90;;;;;;5054083;28;20087;-72
2024/01/23 01:41:32;;;;;;;40.38;5.18;;;7.20;99.90;;;;;;5054461;28;20059;-73
2024/01/23 01:43:58;;;;;;;37.13;4.15;;;7.30;99.90;;;;;;5054308;28;20048;-72
2024/01/23 01:46:26;;;;;;;42.33;4.90;;;7.40;99.90;;;;;;5053934;28;20025;-73
2024/01/23 01:48:52;;;;;;;39.05;4.75;;;7.40;99.90;;;;;;5053941;28;20021;-72
2024/01/23 01:51:20;;;;;;;42.40;5.05;;;7.40;99.90;;;;;;5054434;28;20032;-72
2024/01/23 01:53:48;;;;;;;34.75;4.82;;;7.50;99.90;;;;;;5054168;28;20025;-73
2024/01/23 01:56:14;;;;;;;29.05;4.25;;;7.50;99.90;;;;;;5053663;28;20044;-72
2024/01/23 01:58:41;;;;;;;45.15;5.53;;;7.60;99.90;;;;;;5054157;28;20057;-73
2024/01/23 02:01:07;;;;;;;35.78;4.70;;;7.60;99.90;;;;;;5052366;28;20099;-73
2024/01/23 02:03:32;;;;;;;46.28;5.05;;;7.60;99.90;;;;;;5054123;28;20424;-73
2024/01/23 02:06:00;;;;;;;33.35;5.53;;;7.60;99.90;;;;;;5053114;28;20050;-71
2024/01/23 02:08:28;;;;;;;43.05;5.78;;;7.60;99.90;;;;;;5053780;28;20032;-71
2024/01/23 02:10:54;;;;;;;30.75;4.60;;;7.60;99.90;;;;;;5052352;28;20029;-72
2024/01/23 02:13:20;;;;;;;32.03;4.53;;;7.60;99.90;;;;;;5053328;28;20031;-72
2024/01/23 02:15:46;;;;;;;42.22;4.95;;;7.60;99.90;;;;;;5053411;28;20025;-73
2024/01/23 02:18:11;;;;;;;41.70;5.13;;;7.70;99.90;;;;;;5053432;28;20028;-73
2024/01/23 02:20:37;;;;;;;39.05;4.68;;;7.70;99.90;;;;;;5053709;28;20013;-73
2024/01/23 02:23:03;;;;;;;32.40;4.80;;;7.70;99.90;;;;;;5053548;28;20021;-72
2024/01/23 02:25:29;;;;;;;37.85;3.92;;;7.60;99.90;;;;;;5052983;28;20017;-72
2024/01/23 02:27:57;;;;;;;35.50;5.05;;;7.70;99.90;;;;;;5051442;28;20040;-72
2024/01/23 02:30:23;;;;;;;33.72;5.47;;;7.70;99.90;;;;;;5053602;28;20056;-72
2024/01/23 02:32:48;;;;;;;35.60;5.05;;;7.50;99.90;;;;;;5053416;28;20056;-73
2024/01/23 02:35:14;;;;;;;36.45;4.70;;;7.60;99.90;;;;;;5053395;28;20037;-72
2024/01/23 02:37:40;;;;;;;31.17;4.28;;;7.60;99.90;;;;;;5052282;28;20483;-72
2024/01/23 02:40:06;;;;;;;35.85;4.65;;;7.60;99.90;;;;;;5051979;28;20021;-72
2024/01/23 02:42:32;;;;;;;31.20;4.57;;;7.60;99.90;;;;;;5053251;28;20115;-72
2024/01/23 02:44:58;;;;;;;34.90;5.13;;;7.70;99.90;;;;;;5053416;28;20139;-72
2024/01/23 02:47:24;;;;;;;41.70;5.80;;;7.50;99.90;;;;;;5052344;28;20472;-72
2024/01/23 02:49:50;;;;;;;38.88;5.13;;;7.60;99.90;;;;;;5053114;28;20416;-71
2024/01/23 02:52:16;;;;;;;40.05;4.03;;;7.50;99.90;;;;;;5053316;28;20066;-73
2024/01/23 02:54:42;;;;;;;43.00;5.80;;;7.60;99.90;;;;;;5054122;28;20099;-73
2024/01/23 02:57:08;;;;;;;45.65;6.85;;;7.60;99.90;;;;;;5053762;28;20499;-73
2024/01/23 02:59:33;;;;;;;50.75;6.25;;;7.50;99.90;;;;;;5054063;28;20096;-72
2024/01/23 03:01:59;;;;;;;41.90;5.55;;;7.50;99.90;;;;;;5053962;28;20112;-73
2024/01/23 03:04:24;;;;;;;36.13;4.97;;;7.50;99.90;;;;;;5053990;28;20025;-73
2024/01/23 03:06:50;;;;;;;38.88;5.13;;;7.50;99.90;;;;;;5053576;28;20104;-73
2024/01/23 03:09:16;;;;;;;46.88;6.03;;;7.60;99.90;;;;;;5053849;28;20032;-73
2024/01/23 03:11:41;;;;;;;44.42;6.05;;;7.50;99.90;;;;;;5053667;28;20025;-73
2024/01/23 03:14:07;;;;;;;37.35;4.93;;;7.50;99.90;;;;;;5053910;28;20037;-74
2024/01/23 03:16:32;;;;;;;44.40;5.97;;;7.50;99.90;;;;;;5056199;28;20040;-72
2024/01/23 03:18:58;;;;;;;49.58;6.10;;;7.50;99.90;;;;;;5058390;28;20456;-73
2024/01/23 03:21:24;;;;;;;42.75;5.30;;;7.60;99.90;;;;;;5054510;28;20013;-72
2024/01/23 03:23:49;;;;;;;41.83;5.03;;;7.50;99.90;;;;;;5054317;28;20080;-73
2024/01/23 03:26:15;;;;;;;37.50;5.55;;;7.60;99.90;;;;;;5054232;28;20059;-72
2024/01/23 03:28:40;;;;;;;53.40;6.95;;;7.50;99.90;;;;;;5054375;28;20029;-72
2024/01/23 03:31:06;;;;;;;48.95;5.53;;;7.50;99.90;;;;;;5057806;28;20535;-72
2024/01/23 03:33:33;;;;;;;44.75;5.93;;;7.60;99.90;;;;;;5060794;28;20025;-73
2024/01/23 03:35:58;;;;;;;58.85;7.88;;;7.50;99.90;;;;;;5053489;28;20404;-72
2024/01/23 03:38:24;;;;;;;44.80;5.63;;;7.50;99.90;;;;;;5052402;28;20032;-72
2024/01/23 03:40:49;;;;;;;46.90;6.13;;;7.60;99.90;;;;;;5053619;28;20025;-72
2024/01/23 03:43:15;;;;;;;41.17;6.10;;;7.50;99.90;;;;;;5054047;28;20048;-73
2024/01/23 03:45:41;;;;;;;45.03;6.57;;;7.60;99.90;;;;;;5052758;28;20079;-73
2024/01/23 03:48:06;;;;;;;45.80;5.65;;;7.70;99.90;;;;;;5052760;28;20021;-73
2024/01/23 03:50:32;;;;;;;46.08;6.10;;;7.60;99.90;;;;;;5052558;28;20025;-72
2024/01/23 03:52:58;;;;;;;45.83;6.47;;;7.70;99.90;;;;;;5055436;28;20036;-74
2024/01/23 03:55:25;;;;;;;47.83;6.88;;;7.70;99.90;;;;;;5060153;28;20025;-74
2024/01/23 03:57:51;;;;;;;44.80;6.13;;;7.60;99.90;;;;;;5055395;28;20021;-74
2024/01/23 04:00:17;;;;;;;49.28;7.65;;;7.70;99.90;;;;;;5053017;28;20025;-75
2024/01/23 04:02:43;;;;;;;57.90;6.95;;;7.70;99.90;;;;;;5053104;28;20274;-74
2024/01/23 04:05:09;;;;;;;58.78;6.63;;;7.70;99.90;;;;;;5052581;28;20017;-75
2024/01/23 04:07:35;;;;;;;45.20;5.85;;;7.80;99.90;;;;;;5052138;28;20025;-74
2024/01/23 04:10:01;;;;;;;60.88;8.10;;;7.70;99.90;;;;;;5052500;28;20025;-74
2024/01/23 04:12:27;;;;;;;64.28;7.85;;;7.70;99.90;;;;;;5052511;28;20507;-73
2024/01/23 04:14:53;;;;;;;49.60;7.30;;;7.80;99.70;;;;;;5052369;28;20013;-73
2024/01/23 04:17:18;;;;;;;54.42;7.60;;;7.70;99.90;;;;;;5051889;28;20056;-74
2024/01/23 04:19:44;;;;;;;54.13;7.43;;;7.80;99.80;;;;;;5055464;28;20025;-76
2024/01/23 04:22:10;;;;;;;38.13;5.85;;;7.80;99.80;;;;;;5052331;28;20510;-75
2024/01/23 04:24:37;;;;;;;55.35;6.43;;;7.80;99.90;;;;;;5055153;28;20053;-74
2024/01/23 04:27:04;;;;;;;56.00;7.93;;;7.80;99.80;;;;;;5071553;28;20040;-74
2024/01/23 04:29:29;;;;;;;50.42;7.13;;;7.70;99.90;;;;;;5071848;28;20047;-74
2024/01/23 04:31:55;;;;;;;50.40;6.22;;;7.60;99.90;;;;;;5067456;28;20025;-74
2024/01/23 04:34:21;;;;;;;55.20;6.72;;;7.70;99.50;;;;;;5052120;28;20032;-74
2024/01/23 04:36:46;;;;;;;49.33;6.75;;;7.70;99.90;;;;;;5050337;28;20057;-73
2024/01/23 04:39:12;;;;;;;53.95;6.88;;;7.70;99.30;;;;;;5052201;28;20033;-74
2024/01/23 04:41:38;;;;;;;64.32;8.07;;;7.70;99.90;;;;;;5053997;28;20035;-76
2024/01/23 04:44:04;;;;;;;48.13;6.53;;;7.70;99.90;;;;;;5053804;28;20388;-75
2024/01/23 04:46:29;;;;;;;51.90;6.45;;;7.80;99.50;;;;;;5057234;28;20112;-73
2024/01/23 04:48:55;;;;;;;60.28;6.65;;;7.80;99.30;;;;;;5052109;28;20108;-73
2024/01/23 04:51:21;;;;;;;53.22;7.35;;;7.80;98.90;;;;;;5052186;28;20033;-73
2024/01/23 04:53:47;;;;;;;51.47;6.43;;;7.80;98.90;;;;;;5051900;28;20021;-74
2024/01/23 04:56:13;;;;;;;61.40;7.88;;;7.80;99.00;;;;;;5051572;28;20021;-74
2024/01/23 04:58:39;;;;;;;55.88;8.05;;;7.80;98.20;;;;;;5051692;28;20391;-74
2024/01/23 05:01:06;;;;;;;52.80;7.32;;;7.70;98.50;;;;;;5051528;28;20021;-74
2024/01/23 05:03:32;;;;;;;35.70;6.63;;;7.80;98.40;;;;;;5054448;28;20043;-74
2024/01/23 05:05:58;;;;;;;65.05;8.20;;;7.90;99.10;;;;;;5052755;28;20026;-73
2024/01/23 05:08:24;;;;;;;57.95;7.05;;;7.80;99.90;;;;;;5051511;28;20029;-72
2024/01/23 05:10:49;;;;;;;57.55;7.38;;;7.80;99.90;;;;;;5051838;28;20328;-74
2024/01/23 05:13:15;;;;;;;61.05;7.13;;;7.80;99.90;;;;;;5051477;28;20029;-72
2024/01/23 05:15:40;;;;;;;67.40;8.02;;;7.80;99.90;;;;;;5051530;28;20036;-72
2024/01/23 05:18:07;;;;;;;45.63;6.18;;;7.70;99.90;;;;;;5051567;28;20032;-73
2024/01/23 05:20:34;;;;;;;64.78;8.15;;;7.80;99.90;;;;;;5052820;28;20383;-73
2024/01/23 05:23:03;;;;;;;42.13;6.40;;;7.80;99.90;;;;;;5051871;28;20411;-73
2024/01/23 05:25:28;;;;;;;45.15;6.35;;;7.90;99.90;;;;;;5054044;28;20468;-74
2024/01/23 05:27:54;;;;;;;53.33;6.65;;;7.80;99.90;;;;;;5056028;28;20060;-74
2024/01/23 05:30:20;;;;;;;60.15;7.57;;;8.00;99.90;;;;;;5053290;28;20035;-73
2024/01/23 05:32:46;;;;;;;62.80;9.70;;;7.90;99.90;;;;;;5051675;28;20056;-75
2024/01/23 05:35:12;;;;;;;54.75;8.23;;;7.80;99.90;;;;;;5056088;28;20529;-74
2024/01/23 05:37:37;;;;;;;56.67;7.50;;;7.80;99.90;;;;;;5055367;28;20055;-76
2024/01/23 05:40:04;;;;;;;67.70;10.23;;;7.80;99.90;;;;;;5059862;28;20393;-77
2024/01/23 05:42:29;;;;;;;63.63;9.10;;;7.70;99.90;;;;;;5056517;28;20067;-79
2024/01/23 05:44:56;;;;;;;65.50;8.63;;;7.80;99.90;;;;;;5057103;28;20104;-76
2024/01/23 05:47:21;;;;;;;57.58;8.93;;;7.70;99.90;;;;;;5051930;28;20032;-79
2024/01/23 05:49:47;;;;;;;69.63;8.45;;;7.60;99.90;;;;;;5048442;28;20391;-76
2024/01/23 05:52:13;;;;;;;69.55;7.25;;;7.60;99.90;;;;;;5051218;28;20027;-75
2024/01/23 05:54:41;;;;;;;64.43;7.40;;;7.60;99.90;;;;;;5052744;28;20511;-77
2024/01/23 05:57:07;;;;;;;61.28;7.93;;;7.70;99.90;;;;;;5050066;28;20460;-75
2024/01/23 05:59:33;;;;;;;74.32;8.50;;;7.70;99.90;;;;;;5052771;28;20128;-73
2024/01/23 06:01:58;;;;;;;74.05;8.18;;;7.60;99.90;;;;;;5051128;28;20021;-74
2024/01/23 06:04:24;;;;;;;69.28;8.20;;;7.70;99.90;;;;;;5051609;28;20013;-74
2024/01/23 06:06:50;;;;;;;76.70;8.10;;;7.50;99.90;;;;;;5052774;28;20032;-74
2024/01/23 06:09:15;;;;;;;77.35;8.90;;;7.70;99.90;;;;;;5051345;28;20029;-75
2024/01/23 06:11:41;;;;;;;70.22;7.95;;;7.60;99.90;;;;;;5050874;28;20025;-73
2024/01/23 06:14:06;;;;;;;62.80;8.57;;;7.70;99.90;;;;;;5054572;28;20104;-74
2024/01/23 06:16:32;;;;;;;49.72;7.75;;;7.70;99.90;;;;;;5054275;28;20472;-74
2024/01/23 06:18:58;;;;;;;65.35;9.07;;;7.70;99.90;;;;;;5054618;28;20028;-75
2024/01/23 06:21:23;;;;;;;82.32;9.85;;;7.70;99.90;;;;;;5056052;28;20044;-75
2024/01/23 06:23:49;;;;;;;59.50;7.50;;;7.60;99.90;;;;;;5057748;28;20396;-76
2024/01/23 06:26:15;;;;;;;61.53;7.90;;;7.70;99.90;;;;;;5063499;28;20031;-74
2024/01/23 06:28:42;;;;;;;71.13;8.15;;;7.80;99.90;;;;;;5053977;28;20470;-73
2024/01/23 06:31:07;;;;;;;62.40;8.25;;;7.70;99.90;;;;;;5052709;28;20025;-72
2024/01/23 06:33:33;;;;;;;61.67;7.65;;;7.80;99.90;;;;;;5051382;28;20472;-74
2024/01/23 06:35:59;;;;;;;71.07;8.88;;;7.90;99.90;;;;;;5053330;28;20084;-74
2024/01/23 06:38:24;;;;;;;63.17;8.10;;;7.80;99.90;;;;;;5056768;28;20031;-74
2024/01/23 06:40:50;;;;;;;82.43;10.75;;;7.90;99.90;;;;;;5052461;28;20029;-76
2024/01/23 06:43:15;;;;;;;80.38;9.45;;;7.90;99.90;;;;;;5052860;28;20100;-76
2024/01/23 06:45:41;;;;;;;72.38;8.95;;;7.90;99.90;;;;;;5056913;28;20029;-74
2024/01/23 06:48:07;;;;;;;78.35;8.50;;;8.10;99.90;;;;;;5052422;28;20017;-76
2024/01/23 06:50:33;;;;;;;73.63;8.60;;;8.00;99.90;;;;;;5053184;28;20519;-74
2024/01/23 06:52:58;;;;;;;82.43;8.95;;;8.10;99.90;;;;;;5052918;28;20033;-75
2024/01/23 06:55:24;;;;;;;75.57;9.10;;;8.10;99.90;;;;;;5054162;28;20078;-77
2024/01/23 06:57:50;;;;;;;75.28;9.57;;;8.10;99.90;;;;;;5052819;28;20033;-77
2024/01/23 07:00:16;;;;;;;68.20;9.15;;;8.00;99.90;;;;;;5056881;28;20016;-77
2024/01/23 07:02:42;;;;;;;98.60;11.60;;;8.10;99.90;;;;;;5053562;28;20047;-77
2024/01/23 07:05:07;;;;;;;62.90;8.88;;;8.10;99.90;;;;;;5060864;28;20017;-77
2024/01/23 07:07:35;;;;;;;89.07;9.35;;;8.20;99.90;;;;;;5057556;28;20025;-78
2024/01/23 07:10:01;;;;;;;69.45;9.38;;;8.20;99.90;;;;;;5056349;28;20036;-74
2024/01/23 07:12:26;;;;;;;79.25;10.07;;;8.20;99.90;;;;;;5055119;28;20107;-73
2024/01/23 07:14:52;;;;;;;76.68;9.70;;;8.20;99.90;;;;;;5054169;28;20476;-74
2024/01/23 07:17:17;;;;;;;73.45;10.13;;;8.30;99.90;;;;;;5057900;28;20024;-74
2024/01/23 07:19:44;;;;;;;70.93;9.60;;;8.30;99.90;;;;;;5059789;28;20514;-74
2024/01/23 07:22:09;;;;;;;86.32;10.02;;;8.40;99.90;;;;;;5053786;28;20143;-72
2024/01/23 07:24:35;;;;;;;63.47;8.75;;;8.20;99.90;;;;;;5051865;28;20021;-74
2024/01/23 07:27:00;;;;;;;91.07;10.50;;;8.30;99.90;;;;;;5052291;28;20465;-73
2024/01/23 07:29:26;;;;;;;82.65;9.80;;;8.40;99.90;;;;;;5053711;28;20037;-71
2024/01/23 07:31:52;;;;;;;88.25;10.68;;;8.40;99.90;;;;;;5053857;28;20480;-73
2024/01/23 07:34:17;;;;;;;101.80;11.13;;;8.50;99.90;;;;;;5052812;28;20036;-74
2024/01/23 07:36:44;;;;;;;96.72;11.75;;;8.30;99.90;;;;;;5053157;28;20102;-74
2024/01/23 07:39:10;;;;;;;84.60;11.15;;;8.50;99.90;;;;;;5055303;28;20039;-78
2024/01/23 07:41:36;;;;;;;94.93;11.95;;;8.50;99.90;;;;;;5052930;28;20122;-76
2024/01/23 07:44:01;;;;;;;89.28;10.88;;;8.40;99.90;;;;;;5052818;28;20063;-73
2024/01/23 07:46:27;;;;;;;89.35;10.30;;;8.40;99.90;;;;;;5051879;28;20071;-73
2024/01/23 07:48:52;;;;;;;84.40;8.93;;;8.40;99.90;;;;;;5052188;28;20087;-73
2024/01/23 07:51:18;;;;;;;104.30;11.13;;;8.40;99.90;;;;;;5052417;28;20104;-73
2024/01/23 07:53:44;;;;;;;87.30;11.60;;;8.40;99.90;;;;;;5052703;28;20447;-73
2024/01/23 07:56:09;;;;;;;83.90;11.02;;;8.50;99.90;;;;;;5053340;28;20035;-73
2024/01/23 07:58:35;;;;;;;85.25;10.95;;;8.50;99.90;;;;;;5055307;28;20037;-74
2024/01/23 08:01:00;;;;;;;82.63;11.07;;;8.30;99.90;;;;;;5054998;28;20104;-73
2024/01/23 08:03:26;;;;;;;91.97;11.65;;;8.60;99.90;;;;;;5052943;28;20063;-73
2024/01/23 08:05:52;;;;;;;91.03;10.80;;;8.50;99.90;;;;;;5051517;28;20025;-73
2024/01/23 08:08:17;;;;;;;86.57;11.32;;;8.50;99.90;;;;;;5052085;28;20028;-71
2024/01/23 08:10:44;;;;;;;92.72;11.63;;;8.50;99.90;;;;;;5054081;28;20139;-74
2024/01/23 08:13:09;;;;;;;91.53;12.27;;;8.40;99.90;;;;;;5053856;28;20108;-73
2024/01/23 08:15:35;;;;;;;95.65;12.82;;;8.50;99.90;;;;;;5053025;28;20061;-74
2024/01/23 08:18:03;;;;;;;74.03;10.20;;;8.50;99.90;;;;;;5052317;28;20025;-72
2024/01/23 08:20:30;;;;;;;86.85;12.13;;;8.50;99.90;;;;;;5052477;28;20017;-72
2024/01/23 08:22:55;;;;;;;99.07;12.80;;;8.60;99.90;;;;;;5052298;28;20025;-72
2024/01/23 08:25:21;;;;;;;99.35;12.48;;;8.50;99.90;;;;;;5052157;28;20028;-73
2024/01/23 08:27:46;;;;;;;90.82;13.18;;;8.50;99.90;;;;;;5052083;28;20120;-75
2024/01/23 08:30:12;;;;;;;86.57;11.02;;;8.50;99.90;;;;;;5051946;28;20021;-74
2024/01/23 08:32:38;;;;;;;90.40;11.48;;;8.60;99.90;;;;;;5053536;28;20179;-74
2024/01/23 08:35:06;;;;;;;84.22;10.05;;;8.50;99.90;;;;;;5051131;28;20023;-73
2024/01/23 08:37:32;;;;;;;89.15;11.55;;;8.60;99.90;;;;;;5051628;28;20029;-73
2024/01/23 08:39:57;;;;;;;102.53;11.35;;;8.60;99.90;;;;;;5053227;28;20033;-74
2024/01/23 08:42:23;;;;;;;95.95;11.00;;;8.50;99.90;;;;;;5051726;28;20013;-73
2024/01/23 08:44:50;;;;;;;87.50;10.82;;;8.60;99.90;;;;;;5054731;28;20078;-73
2024/01/23 08:47:16;;;;;;;84.97;10.25;;;8.60;99.90;;;;;;5052336;28;20496;-73
2024/01/23 08:49:41;;;;;;;85.95;12.23;;;8.60;99.90;;;;;;5052001;28;20056;-74
2024/01/23 08:52:07;;;;;;;72.93;10.55;;;8.60;99.90;;;;;;5052005;28;20093;-74
2024/01/23 08:54:34;;;;;;;87.15;11.63;;;8.60;99.90;;;;;;5051428;28;20110;-73
2024/01/23 08:57:00;;;;;;;116.43;17.27;;;8.70;99.90;;;;;;5051621;28;20032;-71
2024/01/23 08:59:28;;;;;;;95.00;11.90;;;8.90;99.90;;;;;;5052515;28;20025;-75
2024/01/23 09:01:54;;;;;;;105.82;12.93;;;8.90;99.90;;;;;;5052728;28;20029;-74
2024/01/23 09:04:20;;;;;;;92.85;11.50;;;9.00;99.90;;;;;;5052535;28;20020;-75
2024/01/23 09:06:45;;;;;;;74.28;10.38;;;9.10;99.80;;;;;;5051961;28;20025;-74
2024/01/23 09:09:11;;;;;;;94.70;11.35;;;9.00;99.90;;;;;;5051531;28;20100;-74
2024/01/23 09:11:36;;;;;;;95.32;12.35;;;9.00;99.90;;;;;;5051516;28;20048;-73
2024/01/23 09:14:03;;;;;;;107.15;13.30;;;8.80;99.90;;;;;;5050952;28;20297;-73
2024/01/23 09:16:28;;;;;;;96.55;12.60;;;8.80;99.90;;;;;;5051800;28;20021;-74
2024/01/23 09:18:55;;;;;;;97.68;12.20;;;;;;;;;;5051721;28;20025;-74
2024/01/23 09:21:24;;;;;;;100.07;11.88;;;;;;;;;;5051733;28;20583;-73
2024/01/23 09:23:50;;;;;;;101.28;12.98;;;;;;;;;;5050457;28;20079;-73
2024/01/23 09:26:16;;;;;;;82.65;10.18;;;;;;;;;;5051135;28;20419;-73
2024/01/23 09:28:42;;;;;;;80.18;10.70;;;;;;;;;;5052032;28;20103;-73
2024/01/23 09:31:08;;;;;;;81.53;10.55;;;;;;;;;;5053054;28;20025;-72
2024/01/23 09:33:35;;;;;;;89.10;11.20;;;;;;;;;;5051650;28;20033;-71
2024/01/23 09:36:01;;;;;;;87.75;10.75;;;;;;;;;;5051461;28;20033;-73
2024/01/23 09:38:27;;;;;;;96.10;12.68;;;;;;;;;;5052288;28;20033;-77
2024/01/23 09:40:53;;;;;;;81.10;10.45;;;;;;;;;;5054803;28;20021;-74
2024/01/23 09:43:20;;;;;;;98.97;11.80;;;;;;;;;;5052265;28;20067;-76
2024/01/23 09:45:47;;;;;;;68.68;11.13;;;;;;;;;;5051176;28;20024;-72
2024/01/23 09:48:15;;;;;;;93.95;11.65;;;;;;;;;;5053721;28;20029;-75
2024/01/23 09:50:41;;;;;;;77.78;11.85;;;;;;;;;;5058585;28;20049;-76
2024/01/23 09:53:07;;;;;;;80.30;10.52;;;;;;;;;;5057466;28;20120;-77
2024/01/23 09:55:33;;;;;;;85.82;11.35;;;;;;;;;;5058307;28;20025;-73
2024/01/23 09:57:59;;;;;;;83.68;11.18;;;;;;;;;;5058146;28;20475;-75
2024/01/23 10:00:25;;;;;;;79.32;10.90;;;;;;;;;;5056399;28;20108;-78
2024/01/23 10:02:51;;;;;;;87.18;11.82;;;;;;;;;;5055792;28;20057;-76
2024/01/23 10:05:17;;;;;;;96.70;11.98;;;;;;;;;;5055666;28;20395;-73
2024/01/23 10:07:43;;;;;;;88.85;11.50;;;;;;;;;;5054580;28;20559;-74
2024/01/23 10:10:17;;;;;;;101.38;12.82;;;;;;;;;;5060335;28;20060;-74
2024/01/23 10:12:49;;;;;;;101.43;11.90;;;;;;;;;;5063886;28;20099;-77
2024/01/23 10:15:17;;;;;;;86.07;10.98;;;;;;;;;;5055018;28;20051;-74
2024/01/23 10:17:44;;;;;;;92.80;12.00;;;;;;;;;;5054063;28;20024;-73
2024/01/23 10:20:10;;;;;;;87.85;11.18;;;;;;;;;;5054321;28;20172;-73
2024/01/23 10:22:36;;;;;;;84.80;10.65;;;;;;;;;;5054250;28;20074;-73
2024/01/23 10:25:03;;;;;;;83.38;11.68;;;;;;;;;;5054302;28;20472;-72
2024/01/23 10:27:30;;;;;;;80.53;11.18;;;;;;;;;;5053773;28;20025;-74
2024/01/23 10:29:56;;;;;;;85.28;11.32;;;;;;;;;;5054107;28;20029;-73
2024/01/23 10:32:23;;;;;;;88.70;11.63;;;;;;;;;;5056493;28;20048;-73
2024/01/23 10:34:55;;;;;;;102.28;13.15;;;;;;;;;;5057294;28;20029;-74
2024/01/23 10:37:21;;;;;;;76.30;10.57;;;;;;;;;;5058002;28;20032;-74
2024/01/23 10:39:51;;;;;;;74.80;10.60;;;;;;;;;;5057579;28;20021;-78
2024/01/23 10:42:18;;;;;;;96.75;11.88;;;;;;;;;;5055292;28;20556;-75
2024/01/23 10:44:45;;;;;;;91.03;11.65;;;;;;;;;;5054232;28;20048;-73
2024/01/23 10:47:13;;;;;;;76.63;10.63;;;;;;;;;;5053607;28;20036;-74
2024/01/23 10:49:39;;;;;;;97.13;11.50;;;;;;;;;;5060051;28;20021;-73
2024/01/23 10:52:06;;;;;;;95.68;10.93;;;;;;;;;;5060218;28;20033;-73
2024/01/23 10:54:32;;;;;;;86.63;11.48;;;;;;;;;;5054242;28;20476;-73
2024/01/23 10:57:01;;;;;;;85.70;11.73;;;;;;;;;;5053749;28;20035;-72
2024/01/23 10:59:28;;;;;;;91.38;11.65;;;;;;;;;;5053624;28;20021;-74
2024/01/23 11:01:59;;;;;;;91.30;12.35;;;;;;;;;;5054100;28;20025;-75
2024/01/23 11:04:25;;;;;;;81.22;10.93;;;;;;;;;;5054536;28;20025;-72
2024/01/23 11:07:15;;;;;;;82.57;11.27;;;;;;;;;;5053802;28;20051;-73
2024/01/23 11:09:45;;;;;;;96.18;11.63;;;;;;;;;;5053794;28;20029;-74
2024/01/23 11:12:15;;;;;;;90.68;11.80;;;;;;;;;;5053647;28;20094;-74
2024/01/23 11:14:50;;;;;;;74.75;10.13;;;;;;;;;;5053167;28;20060;-74
2024/01/23 11:17:17;;;;;;;83.60;10.93;;;;;;;;;;5052170;28;20021;-73
2024/01/23 11:19:43;;;;;;;83.22;11.25;;;;;;;;;;5052048;28;20029;-72
2024/01/23 11:22:09;;;;;;;90.20;11.25;;;;;;;;;;5052196;28;20032;-73
2024/01/23 11:24:43;;;;;;;77.40;10.68;;;;;;;;;;5051793;28;20021;-75
2024/01/23 11:27:09;;;;;;;94.60;12.88;;;;;;;;;;5051015;28;20021;-74
2024/01/23 11:29:35;;;;;;;87.75;11.57;;;;;;;;;;5051927;28;20025;-74
2024/01/23 11:32:02;;;;;;;80.85;10.20;;;;;;;;;;5052355;28;20053;-73
2024/01/23 11:34:29;;;;;;;94.13;11.48;;;;;;;;;;5052563;28;20104;-74
2024/01/23 11:36:55;;;;;;;95.07;11.88;;;;;;;;;;5051389;28;20102;-72
2024/01/23 11:39:22;;;;;;;76.28;11.13;;;;;;;;;;5051336;28;20086;-74
2024/01/23 11:41:49;;;;;;;81.10;10.85;;;;;;;;;;5051977;28;20027;-74
2024/01/23 11:44:16;;;;;;;80.47;11.15;;;;;;;;;;5052334;28;20084;-73
2024/01/23 11:46:42;;;;;;;93.00;10.63;;;;;;;;;;5050958;28;20032;-74
2024/01/23 11:49:10;;;;;;;80.00;10.85;;;;;;;;;;5051450;28;20025;-73
2024/01/23 11:51:36;;;;;;;103.07;12.00;;;;;;;;;;5051542;28;20407;-73
2024/01/23 11:54:05;;;;;;;91.95;11.60;;;;;;;;;;5051085;28;20029;-74
2024/01/23 11:56:31;;;;;;;75.53;10.50;;;;;;;;;;5051113;28;20115;-73
2024/01/23 11:58:58;;;;;;;85.00;13.95;;;;;;;;;;5051730;28;20132;-74
2024/01/23 12:01:24;;;;;;;93.00;13.00;;;;;;;;;;5051919;28;20079;-74
2024/01/23 12:03:51;;;;;;;85.28;11.00;;;;;;;;;;5052168;28;20040;-73
2024/01/23 12:06:17;;;;;;;87.28;10.75;;;;;;;;;;5051079;28;20021;-74
2024/01/23 12:08:44;;;;;;;79.60;11.63;;;;;;;;;;5052040;28;20110;-73
2024/01/23 12:11:10;;;;;;;85.10;15.43;;;;;;;;;;5051569;28;20029;-74
2024/01/23 12:13:40;;;;;;;99.65;15.32;;;;;;;;;;5051690;28;20112;-73
2024/01/23 12:16:09;;;;;;;82.28;11.32;;;;;;;;;;5051044;28;20049;-73
2024/01/23 12:18:35;;;;;;;75.93;10.57;;;;;;;;;;5051202;28;20440;-76
2024/01/23 12:21:03;;;;;;;88.85;11.07;;;;;;;;;;5052040;28;20025;-74
2024/01/23 12:23:29;;;;;;;83.28;10.85;;;;;;;;;;5052177;28;20056;-74
2024/01/23 12:25:56;;;;;;;90.85;11.00;;;;;;;;;;5051155;28;20453;-75
2024/01/23 12:28:23;;;;;;;83.95;11.52;;;;;;;;;;5051734;28;20043;-75
2024/01/23 12:30:49;;;;;;;75.85;11.65;;;;;;;;;;5051554;28;20025;-75
2024/01/23 12:33:18;;;;;;;89.18;10.60;;;;;;;;;;5051364;28;20090;-77
2024/01/23 12:35:45;;;;;;;76.53;10.45;;;;;;;;;;5052217;28;20304;-77
2024/01/23 12:38:14;;;;;;;86.95;10.35;;;;;;;;;;5051574;28;20041;-75
2024/01/23 12:40:41;;;;;;;79.82;10.55;;;;;;;;;;5052825;28;20029;-76
2024/01/23 12:43:07;;;;;;;86.00;11.07;;;;;;;;;;5051936;28;20052;-78
2024/01/23 12:45:33;;;;;;;79.55;10.02;;;;;;;;;;5050533;28;20095;-76
2024/01/23 12:48:00;;;;;;;74.35;11.05;;;;;;;;;;5052259;28;20028;-76
2024/01/23 12:50:26;;;;;;;82.32;12.13;;;;;;;;;;5052078;28;20025;-76
2024/01/23 12:52:53;;;;;;;76.78;10.13;;;;;;;;;;5052180;28;20040;-75
2024/01/23 12:55:20;;;;;;;74.55;9.88;;;;;;;;;;5051679;28;20021;-75
2024/01/23 12:57:45;;;;;;;82.57;12.10;;;;;;;;;;5050212;28;20040;-77
2024/01/23 13:00:12;;;;;;;75.13;10.45;;;;;;;;;;5051355;28;20488;-77
2024/01/23 13:02:38;;;;;;;78.32;11.07;;;;;;;;;;5050878;28;20484;-76
2024/01/23 13:05:04;;;;;;;93.78;10.57;;;;;;;;;;5050494;28;20017;-75